createdAt,value
2022-10-11T00:01:58.219Z,99.90
2022-10-11T00:04:24.760Z,99.90
2022-10-11T00:09:49.726Z,99.90
2022-10-11T00:12:16.264Z,99.90
2022-10-11T00:14:42.795Z,99.90
2022-10-11T00:17:09.421Z,99.90
2022-10-11T00:19:35.923Z,99.90
2022-10-11T00:22:02.436Z,99.90
2022-10-11T00:24:28.960Z,99.90
2022-10-11T00:26:55.487Z,99.90
2022-10-11T00:29:22.065Z,99.90
2022-10-11T00:31:48.599Z,99.90
2022-10-11T00:34:17.940Z,99.90
2022-10-11T00:36:44.642Z,99.90
2022-10-11T00:39:12.311Z,99.90
2022-10-11T00:41:40.830Z,99.90
2022-10-11T00:44:07.372Z,99.90
2022-10-11T00:46:33.949Z,99.90
2022-10-11T00:49:00.460Z,99.90
2022-10-11T00:51:26.972Z,99.90
2022-10-11T00:53:53.476Z,99.90
2022-10-11T00:56:19.982Z,99.90
2022-10-11T00:58:46.660Z,99.90
2022-10-11T01:01:13.209Z,99.90
2022-10-11T01:03:39.842Z,99.90
2022-10-11T01:06:06.949Z,99.90
2022-10-11T01:08:33.707Z,99.90
2022-10-11T01:11:00.213Z,99.90
2022-10-11T01:13:26.745Z,99.90
2022-10-11T01:15:53.305Z,99.90
2022-10-11T01:18:20.391Z,99.90
2022-10-11T01:20:46.927Z,99.90
2022-10-11T01:23:15.482Z,99.90
2022-10-11T01:25:41.989Z,99.90
2022-10-11T01:28:08.533Z,99.90
2022-10-11T01:30:35.089Z,99.90
2022-10-11T01:33:01.634Z,99.90
2022-10-11T01:35:28.188Z,99.90
2022-10-11T01:37:54.733Z,99.90
2022-10-11T01:40:21.296Z,99.90
2022-10-11T01:42:47.840Z,99.90
2022-10-11T01:45:14.333Z,99.90
2022-10-11T01:47:42.386Z,99.90
2022-10-11T01:50:09.046Z,99.90
2022-10-11T01:52:35.553Z,99.90
2022-10-11T01:55:09.562Z,99.90
2022-10-11T01:57:36.571Z,99.90
2022-10-11T02:00:03.487Z,99.90
2022-10-11T02:02:30.006Z,99.90
2022-10-11T02:04:56.536Z,99.90
2022-10-11T02:07:23.000Z,99.90
2022-10-11T02:09:50.279Z,99.90
2022-10-11T02:12:16.788Z,99.90
2022-10-11T02:14:43.305Z,99.90
2022-10-11T02:17:09.858Z,99.90
2022-10-11T02:19:36.384Z,99.90
2022-10-11T02:22:02.901Z,99.90
2022-10-11T02:24:29.870Z,99.90
2022-10-11T02:26:56.444Z,99.90
2022-10-11T02:29:23.031Z,99.90
2022-10-11T02:31:49.531Z,99.90
2022-10-11T02:34:16.165Z,99.90
2022-10-11T02:36:43.016Z,99.90
2022-10-11T02:39:09.520Z,99.90
2022-10-11T02:41:36.099Z,99.90
2022-10-11T02:44:02.640Z,99.90
2022-10-11T02:46:30.473Z,99.90
2022-10-11T02:48:57.012Z,99.90
2022-10-11T02:51:23.483Z,99.90
2022-10-11T02:53:50.071Z,99.90
2022-10-11T02:56:16.642Z,99.90
2022-10-11T02:58:43.183Z,99.90
2022-10-11T03:01:09.790Z,99.90
2022-10-11T03:03:36.385Z,99.90
2022-10-11T03:06:03.334Z,99.90
2022-10-11T03:08:30.056Z,99.90
2022-10-11T03:10:56.609Z,99.90
2022-10-11T03:13:23.110Z,99.90
2022-10-11T03:16:01.933Z,99.90
2022-10-11T03:18:29.821Z,99.90
2022-10-11T03:20:56.410Z,99.90
2022-10-11T03:23:22.926Z,99.90
2022-10-11T03:25:49.617Z,99.90
2022-10-11T03:28:16.160Z,99.90
2022-10-11T03:30:42.721Z,99.90
2022-10-11T03:33:09.189Z,99.90
2022-10-11T03:35:35.724Z,99.90
2022-10-11T03:38:02.245Z,99.90
2022-10-11T03:40:28.746Z,99.90
2022-10-11T03:42:56.397Z,99.90
2022-10-11T03:45:22.992Z,99.90
2022-10-11T03:47:49.485Z,99.90
2022-10-11T03:50:15.977Z,99.90
2022-10-11T03:52:42.452Z,99.90
2022-10-11T03:55:09.100Z,99.90
2022-10-11T03:57:35.626Z,99.90
2022-10-11T04:00:02.167Z,99.90
2022-10-11T04:02:28.755Z,99.90
2022-10-11T04:04:55.412Z,99.90
2022-10-11T04:07:21.967Z,99.90
2022-10-11T04:09:48.612Z,99.90
2022-10-11T04:12:15.140Z,99.90
2022-10-11T04:14:41.631Z,99.90
2022-10-11T04:17:08.135Z,99.90
2022-10-11T04:19:37.209Z,99.90
2022-10-11T04:22:03.735Z,99.90
2022-10-11T04:24:30.284Z,99.90
2022-10-11T04:26:56.911Z,99.90
2022-10-11T04:29:23.532Z,99.90
2022-10-11T04:31:50.124Z,99.90
2022-10-11T04:34:16.646Z,99.90
2022-10-11T04:36:46.362Z,99.90
2022-10-11T04:39:16.422Z,99.90
2022-10-11T04:41:42.930Z,99.90
2022-10-11T04:44:09.464Z,99.90
2022-10-11T04:46:35.939Z,99.90
2022-10-11T04:49:02.437Z,99.90
2022-10-11T04:51:29.030Z,99.90
2022-10-11T04:53:55.737Z,99.90
2022-10-11T04:56:22.406Z,99.90
2022-10-11T04:58:49.483Z,99.90
2022-10-11T05:01:16.012Z,99.90
2022-10-11T05:03:42.663Z,99.90
2022-10-11T05:06:09.899Z,99.90
2022-10-11T05:08:36.570Z,99.90
2022-10-11T05:11:03.947Z,99.90
2022-10-11T05:13:30.520Z,99.90
2022-10-11T05:15:57.197Z,99.90
2022-10-11T05:18:23.896Z,99.90
2022-10-11T05:20:50.454Z,99.90
2022-10-11T05:23:16.964Z,99.90
2022-10-11T05:25:43.573Z,99.90
2022-10-11T05:28:10.125Z,99.90
2022-10-11T05:30:36.960Z,99.90
2022-10-11T05:33:03.712Z,99.90
2022-10-11T05:35:30.251Z,99.90
2022-10-11T05:37:56.734Z,99.90
2022-10-11T05:40:23.278Z,99.90
2022-10-11T05:42:49.797Z,99.90
2022-10-11T05:45:16.403Z,99.90
2022-10-11T05:47:43.010Z,99.90
2022-10-11T05:50:09.512Z,99.90
2022-10-11T05:52:36.049Z,99.90
2022-10-11T05:55:06.027Z,99.90
2022-10-11T05:57:32.663Z,99.90
2022-10-11T05:59:59.187Z,99.90
2022-10-11T06:02:25.714Z,99.90
2022-10-11T06:04:52.252Z,99.90
2022-10-11T06:10:09.812Z,99.90
2022-10-11T06:12:38.095Z,99.90
2022-10-11T06:15:04.661Z,99.90
2022-10-11T06:17:31.473Z,99.90
2022-10-11T06:20:01.326Z,99.90
2022-10-11T06:22:28.017Z,99.90
2022-10-11T06:24:54.569Z,99.90
2022-10-11T06:27:21.179Z,99.90
2022-10-11T06:29:47.743Z,99.90
2022-10-11T06:32:14.287Z,99.90
2022-10-11T06:34:40.932Z,99.90
2022-10-11T06:37:07.618Z,99.90
2022-10-11T06:39:34.967Z,99.90
2022-10-11T06:42:01.580Z,99.90
2022-10-11T06:44:28.289Z,99.90
2022-10-11T06:46:54.798Z,99.90
2022-10-11T06:49:23.442Z,99.90
2022-10-11T06:51:50.367Z,99.90
2022-10-11T06:54:16.886Z,99.90
2022-10-11T06:56:45.586Z,99.90
2022-10-11T06:59:13.339Z,99.90
2022-10-11T07:01:40.259Z,99.90
2022-10-11T07:04:07.425Z,99.90
2022-10-11T07:06:33.926Z,99.90
2022-10-11T07:09:00.505Z,99.90
2022-10-11T07:11:26.970Z,99.90
2022-10-11T07:13:53.576Z,99.90
2022-10-11T07:16:20.210Z,99.90
2022-10-11T07:18:46.738Z,99.90
2022-10-11T07:21:13.696Z,99.90
2022-10-11T07:23:40.225Z,99.90
2022-10-11T07:26:07.539Z,99.90
2022-10-11T07:28:34.952Z,99.90
2022-10-11T07:31:01.668Z,99.90
2022-10-11T07:33:28.291Z,99.90
2022-10-11T07:35:55.144Z,99.90
2022-10-11T07:38:21.759Z,99.90
2022-10-11T07:40:48.749Z,99.90
2022-10-11T07:43:15.488Z,99.90
2022-10-11T07:45:42.008Z,99.90
2022-10-11T07:48:08.514Z,99.90
2022-10-11T07:50:35.063Z,99.90
2022-10-11T07:53:01.631Z,99.90
2022-10-11T07:55:29.992Z,99.90
2022-10-11T07:57:56.544Z,99.90
2022-10-11T08:00:23.184Z,99.90
2022-10-11T08:02:49.831Z,99.90
2022-10-11T08:05:16.289Z,99.90
2022-10-11T08:07:42.824Z,99.90
2022-10-11T08:10:09.363Z,99.90
2022-10-11T08:12:35.880Z,99.90
2022-10-11T08:15:02.525Z,99.90
2022-10-11T08:17:29.067Z,99.90
2022-10-11T08:19:55.712Z,99.90
2022-10-11T08:22:22.288Z,99.90
2022-10-11T08:24:48.782Z,99.90
2022-10-11T08:27:15.317Z,99.90
2022-10-11T08:29:41.885Z,99.90
2022-10-11T08:32:11.874Z,99.90
2022-10-11T08:34:38.392Z,99.90
2022-10-11T08:37:05.143Z,99.90
2022-10-11T08:39:31.842Z,99.90
2022-10-11T08:41:58.315Z,99.90
2022-10-11T08:44:24.844Z,99.90
2022-10-11T08:46:51.515Z,99.90
2022-10-11T08:49:20.732Z,99.90
2022-10-11T08:51:47.286Z,99.90
2022-10-11T08:54:13.938Z,99.90
2022-10-11T08:56:40.793Z,99.90
2022-10-11T08:59:07.292Z,99.90
2022-10-11T09:01:34.093Z,99.90
2022-10-11T09:04:00.862Z,99.90
2022-10-11T09:06:27.396Z,99.90
2022-10-11T09:08:54.500Z,99.90
2022-10-11T09:11:21.002Z,99.90
2022-10-11T09:13:49.421Z,99.90
2022-10-11T09:16:15.994Z,99.90
2022-10-11T09:18:42.738Z,99.90
2022-10-11T09:21:09.312Z,99.90
2022-10-11T09:23:35.849Z,99.90
2022-10-11T09:26:02.648Z,99.90
2022-10-11T09:28:30.427Z,99.90
2022-10-11T09:30:57.418Z,99.90
2022-10-11T09:33:24.041Z,99.90
2022-10-11T09:35:50.701Z,99.90
2022-10-11T09:38:17.257Z,99.90
2022-10-11T09:40:43.779Z,99.90
2022-10-11T09:43:10.549Z,99.90
2022-10-11T09:45:37.084Z,99.90
2022-10-11T09:48:03.639Z,99.90
2022-10-11T09:50:30.665Z,99.90
2022-10-11T09:52:57.316Z,99.90
2022-10-11T09:55:23.876Z,99.90
2022-10-11T09:57:54.349Z,99.90
2022-10-11T10:00:21.344Z,99.90
2022-10-11T10:05:29.586Z,99.90
2022-10-11T10:07:56.351Z,99.90
2022-10-11T10:10:22.908Z,99.90
2022-10-11T10:12:50.556Z,99.90
2022-10-11T10:15:17.308Z,99.90
2022-10-11T10:17:55.414Z,99.90
2022-10-11T10:22:49.804Z,99.90
2022-10-11T10:25:16.297Z,99.90
2022-10-11T10:27:42.875Z,99.90
2022-10-11T10:30:09.444Z,99.90
2022-10-11T10:32:36.010Z,99.90
2022-10-11T10:35:02.571Z,99.90
2022-10-11T10:37:29.073Z,99.90
2022-10-11T10:39:56.290Z,99.90
2022-10-11T10:42:22.849Z,99.90
2022-10-11T10:44:49.364Z,99.90
2022-10-11T10:47:15.966Z,99.90
2022-10-11T10:49:53.815Z,99.90
2022-10-11T10:52:21.309Z,99.90
2022-10-11T10:54:47.921Z,99.90
2022-10-11T10:57:14.438Z,99.90
2022-10-11T10:59:40.918Z,99.90
2022-10-11T11:02:28.057Z,99.90
2022-10-11T11:04:53.998Z,99.90
2022-10-11T11:07:20.608Z,99.90
2022-10-11T11:09:47.080Z,99.90
2022-10-11T11:12:13.564Z,99.40
2022-10-11T11:14:40.037Z,99.90
2022-10-11T11:17:07.170Z,98.20
2022-10-11T11:19:33.672Z,99.00
2022-10-11T11:22:00.187Z,96.00
2022-10-11T11:24:26.665Z,97.00
2022-10-11T11:26:53.145Z,96.90
2022-10-11T11:29:19.834Z,95.90
2022-10-11T11:31:46.308Z,95.90
2022-10-11T11:34:12.785Z,95.20
2022-10-11T11:36:39.285Z,95.00
2022-10-11T11:39:05.819Z,96.10
2022-10-11T11:41:32.349Z,93.60
2022-10-11T11:43:58.824Z,94.80
2022-10-11T11:46:25.334Z,95.00
2022-10-11T11:48:51.858Z,95.10
2022-10-11T11:51:18.600Z,94.20
2022-10-11T11:53:45.116Z,94.30
2022-10-11T11:56:11.610Z,95.00
2022-10-11T11:58:38.143Z,95.30
2022-10-11T12:01:05.156Z,95.30
2022-10-11T12:03:31.823Z,95.40
2022-10-11T12:05:58.338Z,95.80
2022-10-11T12:08:24.835Z,96.10
2022-10-11T12:10:51.295Z,95.20
2022-10-11T12:13:17.962Z,94.60
2022-10-11T12:15:44.442Z,96.50
2022-10-11T12:18:10.970Z,95.20
2022-10-11T12:20:40.597Z,94.90
2022-10-11T12:23:07.081Z,93.20
2022-10-11T12:25:33.572Z,93.40
2022-10-11T12:28:00.086Z,91.40
2022-10-11T12:30:26.610Z,91.30
2022-10-11T12:32:53.253Z,91.30
2022-10-11T12:35:19.729Z,90.60
2022-10-11T12:37:46.218Z,86.70
2022-10-11T12:40:12.704Z,89.10
2022-10-11T12:42:39.207Z,88.60
2022-10-11T12:45:05.674Z,90.30
2022-10-11T12:47:32.438Z,90.50
2022-10-11T12:49:59.268Z,90.30
2022-10-11T12:52:25.763Z,89.80
2022-10-11T12:54:52.327Z,89.10
2022-10-11T12:57:18.785Z,88.10
2022-10-11T12:59:45.326Z,86.40
2022-10-11T13:02:11.796Z,89.20
2022-10-11T13:04:38.294Z,88.80
2022-10-11T13:07:06.952Z,89.70
2022-10-11T13:09:33.542Z,86.60
2022-10-11T13:12:00.083Z,85.40
2022-10-11T13:14:26.582Z,83.50
2022-10-11T13:16:53.125Z,85.10
2022-10-11T13:19:19.681Z,87.10
2022-10-11T13:21:46.152Z,88.20
2022-10-11T13:24:12.646Z,89.00
2022-10-11T13:26:39.172Z,87.40
2022-10-11T13:29:05.673Z,88.40
2022-10-11T13:31:32.995Z,88.60
2022-10-11T13:33:59.483Z,89.80
2022-10-11T13:36:26.633Z,89.90
2022-10-11T13:38:53.520Z,90.20
2022-10-11T13:41:20.335Z,90.00
2022-10-11T13:43:47.523Z,89.70
2022-10-11T13:46:14.053Z,90.80
2022-10-11T13:48:41.020Z,90.50
2022-10-11T13:51:07.544Z,91.30
2022-10-11T13:53:34.092Z,91.90
2022-10-11T13:56:00.621Z,91.50
2022-10-11T13:58:27.114Z,91.80
2022-10-11T14:00:53.615Z,91.80
2022-10-11T14:03:20.193Z,92.00
2022-10-11T14:05:46.710Z,92.30
2022-10-11T14:08:13.296Z,92.60
2022-10-11T14:10:39.763Z,92.60
2022-10-11T14:13:06.295Z,93.40
2022-10-11T14:15:32.959Z,94.20
2022-10-11T14:18:00.964Z,94.60
2022-10-11T14:20:32.953Z,93.90
2022-10-11T14:23:00.029Z,93.50
2022-10-11T14:25:26.541Z,91.90
2022-10-11T14:27:54.536Z,91.80
2022-10-11T14:30:25.641Z,91.10
2022-10-11T14:32:53.668Z,91.30
2022-10-11T14:35:20.181Z,90.70
2022-10-11T14:37:46.651Z,90.30
2022-10-11T14:40:13.185Z,90.70
2022-10-11T14:42:39.678Z,90.70
2022-10-11T14:45:06.233Z,91.10
2022-10-11T14:47:32.739Z,91.10
2022-10-11T14:49:59.237Z,90.30
2022-10-11T14:52:25.752Z,90.60
2022-10-11T14:54:52.225Z,91.10
2022-10-11T14:57:18.766Z,91.30
2022-10-11T14:59:45.257Z,91.20
2022-10-11T15:02:11.742Z,91.30
2022-10-11T15:04:38.213Z,91.30
2022-10-11T15:07:04.759Z,91.20
2022-10-11T15:09:31.345Z,91.50
2022-10-11T15:11:57.955Z,91.40
2022-10-11T15:14:24.500Z,91.10
2022-10-11T15:16:51.021Z,92.00
2022-10-11T15:19:17.660Z,91.20
2022-10-11T15:21:44.234Z,91.50
2022-10-11T15:24:10.737Z,91.40
2022-10-11T15:26:37.237Z,91.50
2022-10-11T15:29:03.720Z,92.10
2022-10-11T15:31:30.283Z,91.90
2022-10-11T15:33:59.487Z,92.80
2022-10-11T15:36:26.226Z,93.10
2022-10-11T15:38:52.741Z,92.80
2022-10-11T15:41:19.825Z,93.10
2022-10-11T15:43:46.305Z,93.30
2022-10-11T15:46:12.989Z,93.50
2022-10-11T15:48:39.501Z,93.80
2022-10-11T15:51:06.005Z,93.80
2022-10-11T15:53:32.504Z,93.80
2022-10-11T15:55:59.210Z,93.70
2022-10-11T15:58:25.712Z,93.90
2022-10-11T16:00:54.007Z,94.20
2022-10-11T16:03:20.487Z,94.30
2022-10-11T16:05:46.989Z,94.60
2022-10-11T16:08:13.464Z,94.70
2022-10-11T16:10:40.041Z,94.60
2022-10-11T16:13:06.519Z,94.70
2022-10-11T16:15:33.063Z,94.90
2022-10-11T16:17:59.560Z,95.10
2022-10-11T16:20:26.119Z,95.20
2022-10-11T16:22:52.653Z,95.30
2022-10-11T16:25:19.259Z,95.50
2022-10-11T16:27:46.139Z,95.70
2022-10-11T16:30:12.712Z,95.80
2022-10-11T16:32:39.203Z,96.10
2022-10-11T16:35:05.773Z,96.10
2022-10-11T16:37:32.326Z,96.30
2022-10-11T16:39:58.797Z,96.40
2022-10-11T16:42:25.271Z,96.50
2022-10-11T16:44:51.824Z,96.70
2022-10-11T16:47:18.659Z,96.60
2022-10-11T16:49:45.161Z,96.80
2022-10-11T16:52:13.852Z,96.90
2022-10-11T16:54:40.365Z,96.90
2022-10-11T16:57:07.142Z,97.10
2022-10-11T16:59:33.689Z,97.20
2022-10-11T17:02:00.227Z,97.30
2022-10-11T17:04:26.786Z,97.40
2022-10-11T17:06:55.006Z,97.90
2022-10-11T17:09:21.478Z,98.00
2022-10-11T17:11:47.996Z,98.10
2022-10-11T17:14:14.496Z,98.30
2022-10-11T17:16:40.984Z,98.30
2022-10-11T17:19:07.494Z,98.40
2022-10-11T17:21:34.053Z,98.50
2022-10-11T17:24:00.570Z,98.70
2022-10-11T17:26:27.182Z,98.90
2022-10-11T17:28:53.701Z,99.10
2022-10-11T17:31:20.267Z,99.30
2022-10-11T17:33:46.778Z,99.50
2022-10-11T17:36:13.369Z,99.60
2022-10-11T17:38:41.249Z,99.80
2022-10-11T17:41:08.280Z,99.90
2022-10-11T17:43:35.225Z,99.90
2022-10-11T17:46:01.923Z,99.90
2022-10-11T17:48:28.411Z,99.90
2022-10-11T17:50:54.931Z,99.90
2022-10-11T17:53:21.427Z,99.90
2022-10-11T17:55:50.280Z,99.90
2022-10-11T17:58:16.761Z,99.90
2022-10-11T18:00:43.471Z,99.90
2022-10-11T18:03:09.981Z,99.90
2022-10-11T18:05:36.571Z,99.90
2022-10-11T18:08:03.093Z,99.90
2022-10-11T18:10:29.741Z,99.90
2022-10-11T18:12:56.290Z,99.90
2022-10-11T18:15:22.868Z,99.90
2022-10-11T18:17:49.453Z,99.90
2022-10-11T18:20:15.937Z,99.90
2022-10-11T18:22:42.459Z,99.90
2022-10-11T18:25:09.190Z,99.90
2022-10-11T18:27:35.704Z,99.90
2022-10-11T18:30:02.208Z,99.90
2022-10-11T18:32:28.782Z,99.90
2022-10-11T18:34:56.090Z,99.90
2022-10-11T18:37:22.675Z,99.90
2022-10-11T18:39:49.376Z,99.90
2022-10-11T18:42:15.878Z,99.90
2022-10-11T18:44:42.384Z,99.90
2022-10-11T18:47:08.900Z,99.90
2022-10-11T18:49:35.524Z,99.90
2022-10-11T18:52:02.082Z,99.90
2022-10-11T18:54:28.589Z,99.90
2022-10-11T18:56:55.165Z,99.90
2022-10-11T18:59:21.665Z,99.90
2022-10-11T19:01:51.915Z,99.90
2022-10-11T19:04:18.578Z,99.90
2022-10-11T19:06:45.237Z,99.90
2022-10-11T19:09:11.841Z,99.90
2022-10-11T19:11:38.419Z,99.90
2022-10-11T19:14:06.949Z,99.90
2022-10-11T19:16:33.513Z,99.90
2022-10-11T19:19:00.189Z,99.90
2022-10-11T19:21:26.694Z,99.90
2022-10-11T19:23:53.269Z,99.90
2022-10-11T19:26:19.800Z,99.90
2022-10-11T19:28:46.449Z,99.90
2022-10-11T19:31:13.127Z,99.90
2022-10-11T19:33:39.747Z,99.90
2022-10-11T19:36:06.785Z,99.90
2022-10-11T19:38:33.272Z,99.90
2022-10-11T19:40:59.763Z,99.90
2022-10-11T19:43:26.278Z,99.90
2022-10-11T19:45:52.828Z,99.90
2022-10-11T19:48:19.393Z,99.90
2022-10-11T19:50:46.041Z,99.90
2022-10-11T19:53:12.571Z,99.90
2022-10-11T19:55:42.947Z,99.90
2022-10-11T19:58:12.370Z,99.90
2022-10-11T20:00:38.907Z,99.90
2022-10-11T20:03:05.412Z,99.90
2022-10-11T20:05:32.063Z,99.90
2022-10-11T20:07:58.685Z,99.90
2022-10-11T20:10:25.180Z,99.90
2022-10-11T20:12:51.844Z,99.90
2022-10-11T20:15:18.333Z,99.90
2022-10-11T20:17:48.183Z,99.90
2022-10-11T20:20:14.752Z,99.90
2022-10-11T20:22:41.301Z,99.90
2022-10-11T20:25:07.807Z,99.90
2022-10-11T20:27:34.663Z,99.90
2022-10-11T20:30:01.303Z,99.90
2022-10-11T20:32:27.887Z,99.90
2022-10-11T20:34:54.388Z,99.90
2022-10-11T20:37:20.969Z,99.90
2022-10-11T20:39:47.463Z,99.90
2022-10-11T20:42:14.082Z,99.90
2022-10-11T20:44:40.603Z,99.90
2022-10-11T20:47:07.140Z,99.90
2022-10-11T20:49:33.651Z,99.90
2022-10-11T20:52:00.237Z,99.90
2022-10-11T20:54:28.853Z,99.90
2022-10-11T20:56:55.484Z,99.90
2022-10-11T20:59:22.235Z,99.90
2022-10-11T21:01:48.830Z,99.90
2022-10-11T21:04:15.422Z,99.90
2022-10-11T21:06:41.905Z,99.90
2022-10-11T21:09:10.229Z,99.90
2022-10-11T21:11:39.146Z,99.90
2022-10-11T21:14:05.791Z,99.90
2022-10-11T21:16:32.296Z,99.90
2022-10-11T21:18:59.002Z,99.90
2022-10-11T21:21:25.508Z,99.90
2022-10-11T21:23:52.007Z,99.90
2022-10-11T21:26:18.562Z,99.90
2022-10-11T21:28:45.151Z,99.90
2022-10-11T21:31:11.756Z,99.90
2022-10-11T21:33:38.359Z,99.90
2022-10-11T21:36:05.063Z,99.90
2022-10-11T21:38:31.676Z,99.90
2022-10-11T21:40:58.177Z,99.90
2022-10-11T21:43:24.865Z,99.90
2022-10-11T21:45:51.329Z,99.90
2022-10-11T21:48:17.829Z,99.90
2022-10-11T21:50:44.379Z,99.90
2022-10-11T21:53:11.193Z,99.90
2022-10-11T21:55:37.734Z,99.90
2022-10-11T21:58:04.253Z,99.90
2022-10-11T22:00:30.801Z,99.90
2022-10-11T22:02:57.352Z,99.90
2022-10-11T22:05:24.182Z,99.90
2022-10-11T22:07:50.741Z,99.90
2022-10-11T22:10:17.244Z,99.90
2022-10-11T22:12:43.828Z,99.90
2022-10-11T22:15:10.409Z,99.90
2022-10-11T22:17:36.939Z,99.90
2022-10-11T22:20:03.426Z,99.90
2022-10-11T22:22:29.980Z,99.90
2022-10-11T22:24:56.474Z,99.90
2022-10-11T22:27:23.064Z,99.90
2022-10-11T22:29:49.625Z,99.90
2022-10-11T22:32:16.173Z,99.90
2022-10-11T22:34:42.677Z,99.90
2022-10-11T22:37:09.295Z,99.90
2022-10-11T22:39:35.880Z,99.90
2022-10-11T22:42:02.389Z,99.90
2022-10-11T22:44:28.881Z,99.90
2022-10-11T22:46:55.402Z,99.90
2022-10-11T22:49:21.957Z,99.90
2022-10-11T22:51:49.446Z,99.90
2022-10-11T22:54:15.930Z,99.90
2022-10-11T22:56:42.460Z,99.90
2022-10-11T22:59:09.451Z,99.90
2022-10-11T23:01:36.085Z,99.90
2022-10-11T23:04:02.718Z,99.90
2022-10-11T23:06:29.415Z,99.90
2022-10-11T23:08:55.926Z,99.90
2022-10-11T23:11:22.523Z,99.90
2022-10-11T23:13:49.059Z,99.90
2022-10-11T23:16:15.681Z,99.90
2022-10-11T23:18:42.281Z,99.90
2022-10-11T23:21:08.784Z,99.90
2022-10-11T23:23:35.336Z,99.90
2022-10-11T23:26:01.827Z,99.90
2022-10-11T23:28:28.423Z,99.90
2022-10-11T23:30:54.972Z,99.90
2022-10-11T23:33:21.529Z,99.90
2022-10-11T23:35:48.028Z,99.90
2022-10-11T23:38:14.581Z,99.90
2022-10-11T23:40:41.327Z,99.90
2022-10-11T23:43:07.821Z,99.90
2022-10-11T23:45:34.461Z,99.90
2022-10-11T23:48:01.026Z,99.90
2022-10-11T23:50:27.529Z,99.90
2022-10-11T23:52:54.120Z,99.90
2022-10-11T23:55:20.897Z,99.90
2022-10-11T23:57:47.413Z,99.90
